Arden, Nevada
Current Conditions -  °F | °C
As of 12:56 AM on Friday 24 Oct 2014 (Local Time) from KLAS Reporting Station
Clear Clear  
Wind Chill: 67°   Ceiling: Unl
Heat Index: 67°   Visibility: 10mi
Dew Point: 36°   Wind: 8mph
Humidity: 32%   Direction: 210°SSW
Pressure: 30.01"   Gusts: NA
Location:  36.079°N, 115.211°W
Report Text: KLAS 240756Z 21007KT 10SM CLR 19/02 A3001 RMK AO2 SLP143 T01940022 403000167
Loading
Personal Weather Stations






























Interactive Weather Map New forecast layout! Learn more

10-Day Weather Forecast

Advertisements
Track Severe Weather on mobile